sensor_id;sensor_type;location;lat;lon;timestamp;P1;durP1;ratioP1;P2;durP2;ratioP2
33814;SDS011;20121;51.910;8.406;2022-07-23T00:01:21;17.47;;;3.77;;
33814;SDS011;20121;51.910;8.406;2022-07-23T00:03:47;6.65;;;3.58;;
33814;SDS011;20121;51.910;8.406;2022-07-23T00:06:13;4.40;;;3.40;;
33814;SDS011;20121;51.910;8.406;2022-07-23T00:08:39;5.30;;;3.63;;
33814;SDS011;20121;51.910;8.406;2022-07-23T00:11:04;6.20;;;3.97;;
33814;SDS011;20121;51.910;8.406;2022-07-23T00:13:30;3.20;;;2.90;;
33814;SDS011;20121;51.910;8.406;2022-07-23T00:15:56;4.47;;;4.07;;
33814;SDS011;20121;51.910;8.406;2022-07-23T00:18:21;7.23;;;3.33;;
33814;SDS011;20121;51.910;8.406;2022-07-23T00:20:47;4.70;;;3.97;;
33814;SDS011;20121;51.910;8.406;2022-07-23T00:23:13;6.50;;;3.80;;
33814;SDS011;20121;51.910;8.406;2022-07-23T00:25:40;6.75;;;3.45;;
33814;SDS011;20121;51.910;8.406;2022-07-23T00:28:05;5.60;;;3.80;;
33814;SDS011;20121;51.910;8.406;2022-07-23T00:30:32;4.40;;;4.00;;
33814;SDS011;20121;51.910;8.406;2022-07-23T00:33:01;11.40;;;3.90;;
33814;SDS011;20121;51.910;8.406;2022-07-23T00:35:29;5.20;;;3.40;;
33814;SDS011;20121;51.910;8.406;2022-07-23T00:37:57;5.28;;;4.05;;
33814;SDS011;20121;51.910;8.406;2022-07-23T00:40:24;5.18;;;4.07;;
33814;SDS011;20121;51.910;8.406;2022-07-23T00:42:50;4.22;;;3.80;;
33814;SDS011;20121;51.910;8.406;2022-07-23T00:45:16;8.20;;;3.70;;
33814;SDS011;20121;51.910;8.406;2022-07-23T00:47:41;2.93;;;2.73;;
33814;SDS011;20121;51.910;8.406;2022-07-23T00:50:07;7.00;;;3.87;;
33814;SDS011;20121;51.910;8.406;2022-07-23T00:52:34;8.75;;;3.83;;
33814;SDS011;20121;51.910;8.406;2022-07-23T00:55:02;6.28;;;4.18;;
33814;SDS011;20121;51.910;8.406;2022-07-23T00:57:28;7.45;;;3.78;;
33814;SDS011;20121;51.910;8.406;2022-07-23T00:59:54;5.73;;;4.40;;
33814;SDS011;20121;51.910;8.406;2022-07-23T01:02:21;5.30;;;3.90;;
33814;SDS011;20121;51.910;8.406;2022-07-23T01:04:46;6.17;;;3.83;;
33814;SDS011;20121;51.910;8.406;2022-07-23T01:07:12;4.17;;;3.30;;
33814;SDS011;20121;51.910;8.406;2022-07-23T01:09:38;15.87;;;3.60;;
33814;SDS011;20121;51.910;8.406;2022-07-23T01:12:04;4.33;;;3.43;;
33814;SDS011;20121;51.910;8.406;2022-07-23T01:14:31;6.60;;;3.85;;
33814;SDS011;20121;51.910;8.406;2022-07-23T01:16:57;4.07;;;3.27;;
33814;SDS011;20121;51.910;8.406;2022-07-23T01:19:22;3.47;;;3.17;;
33814;SDS011;20121;51.910;8.406;2022-07-23T01:21:49;4.20;;;3.20;;
33814;SDS011;20121;51.910;8.406;2022-07-23T01:24:16;6.07;;;3.17;;
33814;SDS011;20121;51.910;8.406;2022-07-23T01:26:44;3.17;;;2.92;;
33814;SDS011;20121;51.910;8.406;2022-07-23T01:29:11;4.63;;;3.42;;
33814;SDS011;20121;51.910;8.406;2022-07-23T01:31:37;4.03;;;3.58;;
33814;SDS011;20121;51.910;8.406;2022-07-23T01:34:03;4.10;;;3.40;;
33814;SDS011;20121;51.910;8.406;2022-07-23T01:36:29;6.05;;;4.45;;
33814;SDS011;20121;51.910;8.406;2022-07-23T01:38:55;4.27;;;3.50;;
33814;SDS011;20121;51.910;8.406;2022-07-23T01:41:21;4.27;;;2.97;;
33814;SDS011;20121;51.910;8.406;2022-07-23T01:43:46;6.30;;;4.47;;
33814;SDS011;20121;51.910;8.406;2022-07-23T01:46:12;5.73;;;4.00;;
33814;SDS011;20121;51.910;8.406;2022-07-23T01:48:38;4.25;;;3.05;;
33814;SDS011;20121;51.910;8.406;2022-07-23T01:51:04;6.97;;;3.30;;
33814;SDS011;20121;51.910;8.406;2022-07-23T01:53:30;4.37;;;3.97;;
33814;SDS011;20121;51.910;8.406;2022-07-23T01:55:56;8.17;;;3.27;;
33814;SDS011;20121;51.910;8.406;2022-07-23T01:58:23;7.07;;;3.78;;
33814;SDS011;20121;51.910;8.406;2022-07-23T02:00:49;4.45;;;3.35;;
33814;SDS011;20121;51.910;8.406;2022-07-23T02:03:15;5.20;;;4.10;;
33814;SDS011;20121;51.910;8.406;2022-07-23T02:05:40;5.53;;;4.40;;
33814;SDS011;20121;51.910;8.406;2022-07-23T02:08:06;4.70;;;4.23;;
33814;SDS011;20121;51.910;8.406;2022-07-23T02:10:32;5.73;;;3.97;;
33814;SDS011;20121;51.910;8.406;2022-07-23T02:12:57;6.07;;;4.50;;
33814;SDS011;20121;51.910;8.406;2022-07-23T02:15:23;3.30;;;3.00;;
33814;SDS011;20121;51.910;8.406;2022-07-23T02:17:49;5.97;;;4.17;;
33814;SDS011;20121;51.910;8.406;2022-07-23T02:20:14;3.87;;;3.57;;
33814;SDS011;20121;51.910;8.406;2022-07-23T02:22:40;7.40;;;4.50;;
33814;SDS011;20121;51.910;8.406;2022-07-23T02:25:06;5.80;;;4.00;;
33814;SDS011;20121;51.910;8.406;2022-07-23T02:27:34;8.02;;;4.82;;
33814;SDS011;20121;51.910;8.406;2022-07-23T02:30:00;5.65;;;3.88;;
33814;SDS011;20121;51.910;8.406;2022-07-23T02:32:26;6.60;;;3.50;;
33814;SDS011;20121;51.910;8.406;2022-07-23T02:34:52;6.10;;;4.20;;
33814;SDS011;20121;51.910;8.406;2022-07-23T02:37:18;5.40;;;3.77;;
33814;SDS011;20121;51.910;8.406;2022-07-23T02:39:43;5.70;;;4.23;;
33814;SDS011;20121;51.910;8.406;2022-07-23T02:42:09;5.13;;;3.70;;
33814;SDS011;20121;51.910;8.406;2022-07-23T02:44:35;7.03;;;4.40;;
33814;SDS011;20121;51.910;8.406;2022-07-23T02:47:00;4.37;;;3.97;;
33814;SDS011;20121;51.910;8.406;2022-07-23T02:49:26;6.73;;;4.20;;
33814;SDS011;20121;51.910;8.406;2022-07-23T02:51:52;5.10;;;3.70;;
33814;SDS011;20121;51.910;8.406;2022-07-23T02:54:18;4.90;;;3.60;;
33814;SDS011;20121;51.910;8.406;2022-07-23T02:56:44;10.03;;;3.73;;
33814;SDS011;20121;51.910;8.406;2022-07-23T02:59:10;6.20;;;3.55;;
33814;SDS011;20121;51.910;8.406;2022-07-23T03:01:35;6.67;;;4.07;;
33814;SDS011;20121;51.910;8.406;2022-07-23T03:04:01;6.13;;;4.80;;
33814;SDS011;20121;51.910;8.406;2022-07-23T03:06:27;6.50;;;4.00;;
33814;SDS011;20121;51.910;8.406;2022-07-23T03:08:52;8.43;;;5.90;;
33814;SDS011;20121;51.910;8.406;2022-07-23T03:11:18;6.90;;;4.60;;
33814;SDS011;20121;51.910;8.406;2022-07-23T03:13:44;5.43;;;4.57;;
33814;SDS011;20121;51.910;8.406;2022-07-23T03:16:09;5.10;;;3.90;;
33814;SDS011;20121;51.910;8.406;2022-07-23T03:18:35;6.23;;;5.10;;
33814;SDS011;20121;51.910;8.406;2022-07-23T03:21:01;4.53;;;3.83;;
33814;SDS011;20121;51.910;8.406;2022-07-23T03:23:27;5.45;;;4.38;;
33814;SDS011;20121;51.910;8.406;2022-07-23T03:25:52;5.30;;;4.20;;
33814;SDS011;20121;51.910;8.406;2022-07-23T03:28:18;3.87;;;3.10;;
33814;SDS011;20121;51.910;8.406;2022-07-23T03:30:47;7.80;;;3.50;;
33814;SDS011;20121;51.910;8.406;2022-07-23T03:33:17;5.63;;;3.88;;
33814;SDS011;20121;51.910;8.406;2022-07-23T03:35:44;8.85;;;6.03;;
33814;SDS011;20121;51.910;8.406;2022-07-23T03:38:11;5.32;;;3.72;;
33814;SDS011;20121;51.910;8.406;2022-07-23T03:40:36;6.80;;;4.60;;
33814;SDS011;20121;51.910;8.406;2022-07-23T03:43:02;4.50;;;3.63;;
33814;SDS011;20121;51.910;8.406;2022-07-23T03:45:28;7.60;;;3.53;;
33814;SDS011;20121;51.910;8.406;2022-07-23T03:47:55;3.60;;;3.28;;
33814;SDS011;20121;51.910;8.406;2022-07-23T03:50:20;3.93;;;3.57;;
33814;SDS011;20121;51.910;8.406;2022-07-23T03:52:46;6.07;;;3.70;;
33814;SDS011;20121;51.910;8.406;2022-07-23T03:55:13;4.70;;;4.28;;
33814;SDS011;20121;51.910;8.406;2022-07-23T03:57:38;5.60;;;3.57;;
33814;SDS011;20121;51.910;8.406;2022-07-23T04:00:05;3.00;;;2.75;;
33814;SDS011;20121;51.910;8.406;2022-07-23T04:02:33;4.03;;;3.63;;
33814;SDS011;20121;51.910;8.406;2022-07-23T04:04:58;5.70;;;3.63;;
33814;SDS011;20121;51.910;8.406;2022-07-23T04:07:25;5.57;;;3.20;;
33814;SDS011;20121;51.910;8.406;2022-07-23T04:09:51;7.80;;;3.60;;
33814;SDS011;20121;51.910;8.406;2022-07-23T04:12:17;4.60;;;3.33;;
33814;SDS011;20121;51.910;8.406;2022-07-23T04:14:43;5.20;;;4.70;;
33814;SDS011;20121;51.910;8.406;2022-07-23T04:17:09;22.27;;;4.37;;
33814;SDS011;20121;51.910;8.406;2022-07-23T04:19:34;7.20;;;3.60;;
33814;SDS011;20121;51.910;8.406;2022-07-23T04:22:05;4.95;;;3.13;;
33814;SDS011;20121;51.910;8.406;2022-07-23T04:24:31;5.30;;;3.70;;
33814;SDS011;20121;51.910;8.406;2022-07-23T04:26:56;4.87;;;3.67;;
33814;SDS011;20121;51.910;8.406;2022-07-23T04:29:22;4.40;;;3.53;;
33814;SDS011;20121;51.910;8.406;2022-07-23T04:31:48;8.50;;;3.93;;
33814;SDS011;20121;51.910;8.406;2022-07-23T04:34:14;9.83;;;3.77;;
33814;SDS011;20121;51.910;8.406;2022-07-23T04:36:39;7.17;;;4.80;;
33814;SDS011;20121;51.910;8.406;2022-07-23T04:39:05;7.23;;;4.47;;
33814;SDS011;20121;51.910;8.406;2022-07-23T04:41:31;7.35;;;3.35;;
33814;SDS011;20121;51.910;8.406;2022-07-23T04:43:57;6.07;;;3.67;;
33814;SDS011;20121;51.910;8.406;2022-07-23T04:46:22;5.37;;;3.60;;
33814;SDS011;20121;51.910;8.406;2022-07-23T04:48:48;4.93;;;3.97;;
33814;SDS011;20121;51.910;8.406;2022-07-23T04:51:14;4.20;;;3.20;;
33814;SDS011;20121;51.910;8.406;2022-07-23T04:53:39;8.67;;;4.10;;
33814;SDS011;20121;51.910;8.406;2022-07-23T04:56:05;6.53;;;3.93;;
33814;SDS011;20121;51.910;8.406;2022-07-23T04:58:31;5.33;;;4.33;;
33814;SDS011;20121;51.910;8.406;2022-07-23T05:00:57;5.67;;;3.30;;
33814;SDS011;20121;51.910;8.406;2022-07-23T05:03:23;6.43;;;3.40;;
33814;SDS011;20121;51.910;8.406;2022-07-23T05:05:49;4.87;;;4.27;;
33814;SDS011;20121;51.910;8.406;2022-07-23T05:08:14;5.73;;;4.00;;
33814;SDS011;20121;51.910;8.406;2022-07-23T05:10:40;7.47;;;4.10;;
33814;SDS011;20121;51.910;8.406;2022-07-23T05:13:06;11.10;;;4.23;;
33814;SDS011;20121;51.910;8.406;2022-07-23T05:15:32;11.83;;;4.63;;
33814;SDS011;20121;51.910;8.406;2022-07-23T05:17:58;8.07;;;5.53;;
33814;SDS011;20121;51.910;8.406;2022-07-23T05:20:23;9.80;;;4.40;;
33814;SDS011;20121;51.910;8.406;2022-07-23T05:22:49;5.60;;;4.07;;
33814;SDS011;20121;51.910;8.406;2022-07-23T05:25:15;7.17;;;4.03;;
33814;SDS011;20121;51.910;8.406;2022-07-23T05:27:40;4.60;;;4.07;;
33814;SDS011;20121;51.910;8.406;2022-07-23T05:30:06;4.43;;;4.03;;
33814;SDS011;20121;51.910;8.406;2022-07-23T05:32:32;7.43;;;4.15;;
33814;SDS011;20121;51.910;8.406;2022-07-23T05:34:58;7.60;;;4.43;;
33814;SDS011;20121;51.910;8.406;2022-07-23T05:37:25;7.72;;;3.72;;
33814;SDS011;20121;51.910;8.406;2022-07-23T05:39:50;6.53;;;3.07;;
33814;SDS011;20121;51.910;8.406;2022-07-23T05:42:16;7.93;;;3.57;;
33814;SDS011;20121;51.910;8.406;2022-07-23T05:44:42;4.87;;;3.40;;
33814;SDS011;20121;51.910;8.406;2022-07-23T05:47:07;5.97;;;3.20;;
33814;SDS011;20121;51.910;8.406;2022-07-23T05:49:33;8.80;;;3.90;;
33814;SDS011;20121;51.910;8.406;2022-07-23T05:51:58;4.83;;;2.80;;
33814;SDS011;20121;51.910;8.406;2022-07-23T05:54:29;2.50;;;2.30;;
33814;SDS011;20121;51.910;8.406;2022-07-23T05:56:54;5.57;;;4.20;;
33814;SDS011;20121;51.910;8.406;2022-07-23T05:59:20;10.40;;;3.17;;
33814;SDS011;20121;51.910;8.406;2022-07-23T06:01:46;4.70;;;2.93;;
33814;SDS011;20121;51.910;8.406;2022-07-23T06:04:11;4.50;;;2.83;;
33814;SDS011;20121;51.910;8.406;2022-07-23T06:06:37;4.53;;;3.57;;
33814;SDS011;20121;51.910;8.406;2022-07-23T06:09:02;4.07;;;2.50;;
33814;SDS011;20121;51.910;8.406;2022-07-23T06:11:28;3.90;;;2.13;;
33814;SDS011;20121;51.910;8.406;2022-07-23T06:13:54;3.10;;;2.45;;
33814;SDS011;20121;51.910;8.406;2022-07-23T06:16:20;5.20;;;3.13;;
33814;SDS011;20121;51.910;8.406;2022-07-23T06:18:45;7.90;;;3.17;;
33814;SDS011;20121;51.910;8.406;2022-07-23T06:21:11;8.93;;;2.97;;
33814;SDS011;20121;51.910;8.406;2022-07-23T06:23:37;7.20;;;2.83;;
33814;SDS011;20121;51.910;8.406;2022-07-23T06:26:02;3.20;;;2.90;;
33814;SDS011;20121;51.910;8.406;2022-07-23T06:28:28;4.90;;;2.57;;
33814;SDS011;20121;51.910;8.406;2022-07-23T06:30:54;4.40;;;3.07;;
33814;SDS011;20121;51.910;8.406;2022-07-23T06:33:19;2.47;;;2.27;;
33814;SDS011;20121;51.910;8.406;2022-07-23T06:35:45;2.53;;;2.30;;
33814;SDS011;20121;51.910;8.406;2022-07-23T06:38:10;3.20;;;2.57;;
33814;SDS011;20121;51.910;8.406;2022-07-23T06:40:36;3.10;;;2.53;;
33814;SDS011;20121;51.910;8.406;2022-07-23T06:43:02;8.30;;;3.17;;
33814;SDS011;20121;51.910;8.406;2022-07-23T06:45:28;2.30;;;2.10;;
33814;SDS011;20121;51.910;8.406;2022-07-23T06:47:53;4.97;;;2.22;;
33814;SDS011;20121;51.910;8.406;2022-07-23T06:50:19;8.23;;;2.50;;
33814;SDS011;20121;51.910;8.406;2022-07-23T06:52:45;3.83;;;2.43;;
33814;SDS011;20121;51.910;8.406;2022-07-23T06:55:10;4.40;;;3.50;;
33814;SDS011;20121;51.910;8.406;2022-07-23T06:57:36;3.90;;;2.77;;
33814;SDS011;20121;51.910;8.406;2022-07-23T07:00:02;2.87;;;2.57;;
33814;SDS011;20121;51.910;8.406;2022-07-23T07:02:29;4.82;;;2.70;;
33814;SDS011;20121;51.910;8.406;2022-07-23T07:04:54;7.00;;;3.70;;
33814;SDS011;20121;51.910;8.406;2022-07-23T07:07:21;4.70;;;2.60;;
33814;SDS011;20121;51.910;8.406;2022-07-23T07:09:46;3.42;;;2.30;;
33814;SDS011;20121;51.910;8.406;2022-07-23T07:12:12;3.53;;;2.27;;
33814;SDS011;20121;51.910;8.406;2022-07-23T07:14:38;4.40;;;2.57;;
33814;SDS011;20121;51.910;8.406;2022-07-23T07:17:03;3.90;;;2.40;;
33814;SDS011;20121;51.910;8.406;2022-07-23T07:19:29;3.70;;;2.83;;
33814;SDS011;20121;51.910;8.406;2022-07-23T07:21:55;3.10;;;2.90;;
33814;SDS011;20121;51.910;8.406;2022-07-23T07:24:21;4.67;;;2.90;;
33814;SDS011;20121;51.910;8.406;2022-07-23T07:26:46;5.07;;;2.93;;
33814;SDS011;20121;51.910;8.406;2022-07-23T07:29:12;3.00;;;2.73;;
33814;SDS011;20121;51.910;8.406;2022-07-23T07:31:38;2.50;;;2.30;;
33814;SDS011;20121;51.910;8.406;2022-07-23T07:34:03;3.53;;;2.40;;
33814;SDS011;20121;51.910;8.406;2022-07-23T07:36:29;3.20;;;2.57;;
33814;SDS011;20121;51.910;8.406;2022-07-23T07:38:55;2.87;;;2.57;;
33814;SDS011;20121;51.910;8.406;2022-07-23T07:41:20;3.13;;;2.60;;
33814;SDS011;20121;51.910;8.406;2022-07-23T07:43:49;2.50;;;2.30;;
33814;SDS011;20121;51.910;8.406;2022-07-23T07:46:15;4.60;;;3.03;;
33814;SDS011;20121;51.910;8.406;2022-07-23T07:48:41;5.77;;;2.73;;
33814;SDS011;20121;51.910;8.406;2022-07-23T07:51:07;2.67;;;2.47;;
33814;SDS011;20121;51.910;8.406;2022-07-23T07:53:33;4.18;;;2.50;;
33814;SDS011;20121;51.910;8.406;2022-07-23T07:55:58;3.03;;;2.70;;
33814;SDS011;20121;51.910;8.406;2022-07-23T07:58:24;7.53;;;3.53;;
33814;SDS011;20121;51.910;8.406;2022-07-23T08:00:50;4.67;;;2.53;;
33814;SDS011;20121;51.910;8.406;2022-07-23T08:03:16;3.90;;;3.00;;
33814;SDS011;20121;51.910;8.406;2022-07-23T08:05:42;2.70;;;2.40;;
33814;SDS011;20121;51.910;8.406;2022-07-23T08:08:07;2.93;;;2.70;;
33814;SDS011;20121;51.910;8.406;2022-07-23T08:10:34;2.95;;;2.50;;
33814;SDS011;20121;51.910;8.406;2022-07-23T08:13:00;3.53;;;2.13;;
33814;SDS011;20121;51.910;8.406;2022-07-23T08:15:26;2.57;;;2.33;;
33814;SDS011;20121;51.910;8.406;2022-07-23T08:17:53;3.13;;;2.40;;
33814;SDS011;20121;51.910;8.406;2022-07-23T08:20:20;2.50;;;2.30;;
33814;SDS011;20121;51.910;8.406;2022-07-23T08:25:12;2.90;;;2.30;;
33814;SDS011;20121;51.910;8.406;2022-07-23T08:27:38;2.67;;;2.30;;
33814;SDS011;20121;51.910;8.406;2022-07-23T08:30:04;3.60;;;2.40;;
33814;SDS011;20121;51.910;8.406;2022-07-23T08:32:30;4.78;;;2.45;;
33814;SDS011;20121;51.910;8.406;2022-07-23T08:34:56;4.43;;;2.33;;
33814;SDS011;20121;51.910;8.406;2022-07-23T08:37:21;1.70;;;1.60;;
33814;SDS011;20121;51.910;8.406;2022-07-23T08:39:47;3.17;;;2.13;;
33814;SDS011;20121;51.910;8.406;2022-07-23T08:42:15;2.87;;;2.23;;
33814;SDS011;20121;51.910;8.406;2022-07-23T08:44:44;6.55;;;2.33;;
33814;SDS011;20121;51.910;8.406;2022-07-23T08:47:11;2.58;;;2.30;;
33814;SDS011;20121;51.910;8.406;2022-07-23T08:49:37;2.10;;;1.73;;
33814;SDS011;20121;51.910;8.406;2022-07-23T08:52:04;1.85;;;1.75;;
33814;SDS011;20121;51.910;8.406;2022-07-23T08:54:31;3.25;;;2.60;;
33814;SDS011;20121;51.910;8.406;2022-07-23T08:56:57;2.35;;;2.10;;
33814;SDS011;20121;51.910;8.406;2022-07-23T08:59:22;6.50;;;2.53;;
33814;SDS011;20121;51.910;8.406;2022-07-23T09:01:48;2.67;;;2.43;;
33814;SDS011;20121;51.910;8.406;2022-07-23T09:04:14;2.70;;;2.30;;
33814;SDS011;20121;51.910;8.406;2022-07-23T09:06:39;1.97;;;1.77;;
33814;SDS011;20121;51.910;8.406;2022-07-23T09:09:17;2.20;;;2.00;;
33814;SDS011;20121;51.910;8.406;2022-07-23T09:11:47;3.80;;;1.83;;
33814;SDS011;20121;51.910;8.406;2022-07-23T09:14:36;6.03;;;3.47;;
33814;SDS011;20121;51.910;8.406;2022-07-23T09:17:08;2.30;;;2.10;;
33814;SDS011;20121;51.910;8.406;2022-07-23T09:19:35;1.73;;;1.63;;
33814;SDS011;20121;51.910;8.406;2022-07-23T09:22:17;2.90;;;1.93;;
33814;SDS011;20121;51.910;8.406;2022-07-23T09:30:19;4.90;;;1.60;;
33814;SDS011;20121;51.910;8.406;2022-07-23T09:33:11;1.55;;;1.35;;
33814;SDS011;20121;51.910;8.406;2022-07-23T09:35:54;2.00;;;1.83;;
33814;SDS011;20121;51.910;8.406;2022-07-23T09:38:21;2.80;;;1.73;;
33814;SDS011;20121;51.910;8.406;2022-07-23T09:43:34;1.55;;;1.40;;
33814;SDS011;20121;51.910;8.406;2022-07-23T09:46:16;1.90;;;1.80;;
33814;SDS011;20121;51.910;8.406;2022-07-23T09:48:46;3.97;;;2.00;;
33814;SDS011;20121;51.910;8.406;2022-07-23T09:51:12;4.45;;;2.15;;
33814;SDS011;20121;51.910;8.406;2022-07-23T09:54:04;2.08;;;1.88;;
33814;SDS011;20121;51.910;8.406;2022-07-23T09:56:30;2.00;;;1.80;;
33814;SDS011;20121;51.910;8.406;2022-07-23T09:58:58;2.60;;;1.92;;
33814;SDS011;20121;51.910;8.406;2022-07-23T10:01:50;2.92;;;2.00;;
33814;SDS011;20121;51.910;8.406;2022-07-23T10:04:19;1.45;;;1.35;;
33814;SDS011;20121;51.910;8.406;2022-07-23T10:06:48;1.70;;;1.60;;
33814;SDS011;20121;51.910;8.406;2022-07-23T10:09:18;1.83;;;1.60;;
33814;SDS011;20121;51.910;8.406;2022-07-23T10:11:48;2.90;;;1.80;;
33814;SDS011;20121;51.910;8.406;2022-07-23T10:14:15;1.50;;;1.40;;
33814;SDS011;20121;51.910;8.406;2022-07-23T10:16:41;2.55;;;2.03;;
33814;SDS011;20121;51.910;8.406;2022-07-23T10:19:07;1.85;;;1.75;;
33814;SDS011;20121;51.910;8.406;2022-07-23T10:24:10;6.25;;;2.10;;
33814;SDS011;20121;51.910;8.406;2022-07-23T10:29:55;2.00;;;1.88;;
33814;SDS011;20121;51.910;8.406;2022-07-23T10:38:06;2.15;;;1.80;;
33814;SDS011;20121;51.910;8.406;2022-07-23T10:40:38;1.55;;;1.45;;
33814;SDS011;20121;51.910;8.406;2022-07-23T10:43:22;1.88;;;1.45;;
33814;SDS011;20121;51.910;8.406;2022-07-23T10:45:48;6.28;;;1.85;;
33814;SDS011;20121;51.910;8.406;2022-07-23T10:56:16;1.88;;;1.60;;
33814;SDS011;20121;51.910;8.406;2022-07-23T10:59:03;2.13;;;1.80;;
33814;SDS011;20121;51.910;8.406;2022-07-23T11:01:33;1.77;;;1.67;;
33814;SDS011;20121;51.910;8.406;2022-07-23T11:04:03;1.75;;;1.58;;
33814;SDS011;20121;51.910;8.406;2022-07-23T11:09:29;2.40;;;1.73;;
33814;SDS011;20121;51.910;8.406;2022-07-23T11:12:45;1.95;;;1.38;;
33814;SDS011;20121;51.910;8.406;2022-07-23T11:14:58;2.35;;;2.15;;
33814;SDS011;20121;51.910;8.406;2022-07-23T11:22:57;1.90;;;1.80;;
33814;SDS011;20121;51.910;8.406;2022-07-23T11:27:54;4.40;;;2.00;;
33814;SDS011;20121;51.910;8.406;2022-07-23T11:35:35;2.20;;;1.45;;
33814;SDS011;20121;51.910;8.406;2022-07-23T11:40:45;1.65;;;1.50;;
33814;SDS011;20121;51.910;8.406;2022-07-23T11:43:15;2.55;;;1.90;;
33814;SDS011;20121;51.910;8.406;2022-07-23T11:45:43;2.20;;;1.98;;
33814;SDS011;20121;51.910;8.406;2022-07-23T11:48:17;1.15;;;1.02;;
33814;SDS011;20121;51.910;8.406;2022-07-23T11:50:43;1.48;;;1.38;;
33814;SDS011;20121;51.910;8.406;2022-07-23T11:53:09;4.40;;;1.23;;
33814;SDS011;20121;51.910;8.406;2022-07-23T11:55:34;1.20;;;1.10;;
33814;SDS011;20121;51.910;8.406;2022-07-23T11:58:00;1.37;;;1.27;;
33814;SDS011;20121;51.910;8.406;2022-07-23T12:00:28;1.67;;;1.50;;
33814;SDS011;20121;51.910;8.406;2022-07-23T12:02:59;2.38;;;1.60;;
33814;SDS011;20121;51.910;8.406;2022-07-23T12:05:28;2.40;;;1.45;;
33814;SDS011;20121;51.910;8.406;2022-07-23T12:07:58;1.98;;;1.42;;
33814;SDS011;20121;51.910;8.406;2022-07-23T12:10:26;1.40;;;1.30;;
33814;SDS011;20121;51.910;8.406;2022-07-23T12:12:56;5.60;;;2.00;;
33814;SDS011;20121;51.910;8.406;2022-07-23T12:15:34;2.45;;;1.45;;
33814;SDS011;20121;51.910;8.406;2022-07-23T12:18:06;1.10;;;0.93;;
33814;SDS011;20121;51.910;8.406;2022-07-23T12:20:34;1.20;;;1.10;;
33814;SDS011;20121;51.910;8.406;2022-07-23T12:23:03;3.30;;;1.75;;
33814;SDS011;20121;51.910;8.406;2022-07-23T12:25:42;5.13;;;1.00;;
33814;SDS011;20121;51.910;8.406;2022-07-23T12:30:42;1.23;;;1.13;;
33814;SDS011;20121;51.910;8.406;2022-07-23T12:33:22;1.50;;;1.27;;
33814;SDS011;20121;51.910;8.406;2022-07-23T12:35:48;1.30;;;1.20;;
33814;SDS011;20121;51.910;8.406;2022-07-23T12:38:15;0.80;;;0.80;;
33814;SDS011;20121;51.910;8.406;2022-07-23T12:40:44;1.15;;;1.05;;
33814;SDS011;20121;51.910;8.406;2022-07-23T12:45:53;1.30;;;1.20;;
33814;SDS011;20121;51.910;8.406;2022-07-23T12:48:24;1.45;;;1.10;;
33814;SDS011;20121;51.910;8.406;2022-07-23T12:50:54;1.10;;;1.00;;
33814;SDS011;20121;51.910;8.406;2022-07-23T12:53:43;1.02;;;0.93;;
33814;SDS011;20121;51.910;8.406;2022-07-23T12:56:17;2.28;;;1.02;;
33814;SDS011;20121;51.910;8.406;2022-07-23T12:58:58;1.40;;;1.30;;
33814;SDS011;20121;51.910;8.406;2022-07-23T13:01:35;1.20;;;1.00;;
33814;SDS011;20121;51.910;8.406;2022-07-23T13:07:19;0.90;;;0.90;;
33814;SDS011;20121;51.910;8.406;2022-07-23T13:09:30;1.20;;;1.10;;
33814;SDS011;20121;51.910;8.406;2022-07-23T13:11:58;0.80;;;0.80;;
33814;SDS011;20121;51.910;8.406;2022-07-23T13:14:25;1.55;;;1.10;;
33814;SDS011;20121;51.910;8.406;2022-07-23T13:16:51;0.80;;;0.75;;
33814;SDS011;20121;51.910;8.406;2022-07-23T13:19:18;1.00;;;0.80;;
33814;SDS011;20121;51.910;8.406;2022-07-23T13:21:44;2.53;;;1.05;;
33814;SDS011;20121;51.910;8.406;2022-07-23T13:24:11;0.85;;;0.85;;
33814;SDS011;20121;51.910;8.406;2022-07-23T13:26:37;1.15;;;1.05;;
33814;SDS011;20121;51.910;8.406;2022-07-23T13:29:04;4.60;;;1.50;;
33814;SDS011;20121;51.910;8.406;2022-07-23T13:31:30;2.53;;;1.33;;
33814;SDS011;20121;51.910;8.406;2022-07-23T13:33:55;1.03;;;0.97;;
33814;SDS011;20121;51.910;8.406;2022-07-23T13:36:21;1.00;;;0.90;;
33814;SDS011;20121;51.910;8.406;2022-07-23T13:38:47;1.20;;;1.10;;
33814;SDS011;20121;51.910;8.406;2022-07-23T13:41:12;1.33;;;0.80;;
33814;SDS011;20121;51.910;8.406;2022-07-23T13:43:41;0.85;;;0.85;;
33814;SDS011;20121;51.910;8.406;2022-07-23T13:46:06;1.00;;;1.00;;
33814;SDS011;20121;51.910;8.406;2022-07-23T13:48:32;1.10;;;1.00;;
33814;SDS011;20121;51.910;8.406;2022-07-23T13:50:58;0.80;;;0.80;;
33814;SDS011;20121;51.910;8.406;2022-07-23T13:53:24;1.10;;;1.00;;
33814;SDS011;20121;51.910;8.406;2022-07-23T13:55:50;1.40;;;1.30;;
33814;SDS011;20121;51.910;8.406;2022-07-23T13:58:17;1.92;;;0.80;;
33814;SDS011;20121;51.910;8.406;2022-07-23T14:00:45;1.50;;;1.40;;
33814;SDS011;20121;51.910;8.406;2022-07-23T14:03:13;1.20;;;1.10;;
33814;SDS011;20121;51.910;8.406;2022-07-23T14:05:39;1.00;;;0.90;;
33814;SDS011;20121;51.910;8.406;2022-07-23T14:08:06;1.15;;;1.02;;
33814;SDS011;20121;51.910;8.406;2022-07-23T14:10:31;2.33;;;1.10;;
33814;SDS011;20121;51.910;8.406;2022-07-23T14:12:57;1.13;;;1.03;;
33814;SDS011;20121;51.910;8.406;2022-07-23T14:15:25;0.90;;;0.80;;
33814;SDS011;20121;51.910;8.406;2022-07-23T14:17:53;0.80;;;0.80;;
33814;SDS011;20121;51.910;8.406;2022-07-23T14:20:20;1.00;;;0.90;;
33814;SDS011;20121;51.910;8.406;2022-07-23T14:22:46;1.85;;;1.00;;
33814;SDS011;20121;51.910;8.406;2022-07-23T14:25:12;1.57;;;1.00;;
33814;SDS011;20121;51.910;8.406;2022-07-23T14:27:38;1.42;;;1.10;;
33814;SDS011;20121;51.910;8.406;2022-07-23T14:30:08;1.80;;;1.42;;
33814;SDS011;20121;51.910;8.406;2022-07-23T14:32:34;1.10;;;1.00;;
33814;SDS011;20121;51.910;8.406;2022-07-23T14:35:00;1.42;;;1.20;;
33814;SDS011;20121;51.910;8.406;2022-07-23T14:37:27;1.13;;;0.93;;
33814;SDS011;20121;51.910;8.406;2022-07-23T14:39:52;4.50;;;1.07;;
33814;SDS011;20121;51.910;8.406;2022-07-23T14:42:18;0.70;;;0.70;;
33814;SDS011;20121;51.910;8.406;2022-07-23T14:44:44;0.90;;;0.90;;
33814;SDS011;20121;51.910;8.406;2022-07-23T14:47:10;1.10;;;1.00;;
33814;SDS011;20121;51.910;8.406;2022-07-23T14:49:36;1.60;;;1.00;;
33814;SDS011;20121;51.910;8.406;2022-07-23T14:52:02;0.93;;;0.87;;
33814;SDS011;20121;51.910;8.406;2022-07-23T14:54:28;1.10;;;1.00;;
33814;SDS011;20121;51.910;8.406;2022-07-23T14:56:54;1.07;;;0.97;;
33814;SDS011;20121;51.910;8.406;2022-07-23T14:59:21;1.38;;;1.05;;
33814;SDS011;20121;51.910;8.406;2022-07-23T15:01:47;1.85;;;1.42;;
33814;SDS011;20121;51.910;8.406;2022-07-23T15:04:13;2.60;;;1.10;;
33814;SDS011;20121;51.910;8.406;2022-07-23T15:06:39;0.90;;;0.90;;
33814;SDS011;20121;51.910;8.406;2022-07-23T15:09:05;2.70;;;1.53;;
33814;SDS011;20121;51.910;8.406;2022-07-23T15:11:31;1.70;;;1.07;;
33814;SDS011;20121;51.910;8.406;2022-07-23T15:14:02;0.80;;;0.80;;
33814;SDS011;20121;51.910;8.406;2022-07-23T15:16:29;1.45;;;1.27;;
33814;SDS011;20121;51.910;8.406;2022-07-23T15:18:55;10.02;;;1.20;;
33814;SDS011;20121;51.910;8.406;2022-07-23T15:21:21;1.00;;;0.90;;
33814;SDS011;20121;51.910;8.406;2022-07-23T15:23:47;1.03;;;0.93;;
33814;SDS011;20121;51.910;8.406;2022-07-23T15:26:12;2.20;;;1.03;;
33814;SDS011;20121;51.910;8.406;2022-07-23T15:28:39;1.60;;;1.50;;
33814;SDS011;20121;51.910;8.406;2022-07-23T15:31:06;0.80;;;0.80;;
33814;SDS011;20121;51.910;8.406;2022-07-23T15:33:32;2.00;;;1.20;;
33814;SDS011;20121;51.910;8.406;2022-07-23T15:35:57;1.17;;;1.07;;
33814;SDS011;20121;51.910;8.406;2022-07-23T15:38:24;1.55;;;1.00;;
33814;SDS011;20121;51.910;8.406;2022-07-23T15:40:54;0.70;;;0.70;;
33814;SDS011;20121;51.910;8.406;2022-07-23T15:43:24;1.20;;;1.10;;
33814;SDS011;20121;51.910;8.406;2022-07-23T15:45:50;1.70;;;1.60;;